Time;durP1;ratioP1;P1;durP2;ratioP2;P2;SDS_P1;SDS_P2;PMS_P1;PMS_P2;Temp;Humidity;BMP_temperature;BMP_pressure;BME280_temperature;BME280_humidity;BME280_pressure;Samples;Min_cycle;Max_cycle;Signal;HPM_P1;HPM_P2
2021/11/23 06:43:23;;;;;;;9.80;6.60;;;;;;;-4.00;100.00;100216.69;5152701;27;20928;-83
2021/11/23 06:45:50;;;;;;;10.53;6.77;;;;;;;-3.91;100.00;100214.47;5128000;27;20093;-83
2021/11/23 06:48:17;;;;;;;11.07;6.67;;;;;;;-4.04;100.00;100192.03;5130067;28;20051;-83
2021/11/23 06:50:45;;;;;;;11.40;7.07;;;;;;;-3.82;100.00;100223.84;5130202;28;20054;-83
2021/11/23 06:53:14;;;;;;;10.47;6.27;;;;;;;-3.92;100.00;100209.22;5130500;27;20055;-83
2021/11/23 06:55:42;;;;;;;;;;;;;;;-3.76;100.00;100228.03;5129426;28;20055;-83
2021/11/23 06:58:09;;;;;;;8.00;5.63;;;;;;;-3.82;100.00;100225.66;5129972;28;19919;-83
2021/11/23 07:00:38;;;;;;;15.77;6.43;;;;;;;-3.86;100.00;100235.53;5128984;28;20044;-83
2021/11/23 07:03:05;;;;;;;10.23;5.95;;;;;;;-3.97;100.00;100213.91;5130251;28;20509;-83
2021/11/23 07:05:32;;;;;;;9.70;6.20;;;;;;;-3.82;100.00;100234.47;5129860;28;20047;-84
2021/11/23 07:08:02;;;;;;;11.00;7.70;;;;;;;-3.70;100.00;100235.72;5128817;27;20051;-83
2021/11/23 07:10:32;;;;;;;10.47;7.07;;;;;;;-3.84;100.00;100219.50;5130070;27;20051;-83
2021/11/23 07:12:59;;;;;;;;;;;;;;;-3.62;100.00;100246.88;5129996;27;20051;-83
2021/11/23 07:15:26;;;;;;;16.03;8.83;;;;;;;-3.72;100.00;100250.84;5130164;27;20404;-83
2021/11/23 07:17:56;;;;;;;15.30;9.20;;;;;;;-3.72;100.00;100242.88;5128206;28;20398;-83
2021/11/23 07:20:23;;;;;;;20.90;9.73;;;;;;;-3.76;100.00;100233.34;5129973;27;20055;-83
2021/11/23 07:22:50;;;;;;;25.73;12.07;;;;;;;-3.70;100.00;100232.19;5129912;28;20112;-83
2021/11/23 07:25:17;;;;;;;28.17;13.10;;;;;;;-3.75;100.00;100241.25;5129303;27;20055;-83
2021/11/23 07:27:44;;;;;;;18.73;10.00;;;;;;;-3.75;100.00;100240.38;5127644;27;20047;-83
2021/11/23 07:30:13;;;;;;;16.27;9.33;;;;;;;-3.56;100.00;100262.53;5129412;28;20059;-83
2021/11/23 07:32:40;;;;;;;14.43;8.80;;;;;;;-3.61;100.00;100253.91;5129261;27;20448;-83
2021/11/23 07:35:10;;;;;;;17.40;7.97;;;;;;;-3.53;100.00;100255.38;5129876;27;20055;-83
2021/11/23 07:37:40;;;;;;;17.03;9.17;;;;;;;-3.44;100.00;100265.59;5129121;27;20622;-83
2021/11/23 07:40:09;;;;;;;18.17;8.93;;;;;;;-3.48;100.00;100248.03;5129522;27;20055;-83
2021/11/23 07:42:36;;;;;;;20.60;9.60;;;;;;;-3.38;100.00;100263.50;5123869;27;20047;-84
2021/11/23 07:45:04;;;;;;;14.50;8.37;;;;;;;-3.34;100.00;100256.28;5112640;28;20406;-83
2021/11/23 07:47:31;;;;;;;14.67;8.90;;;;;;;-3.20;100.00;100261.81;5115529;28;20092;-83
2021/11/23 07:49:58;;;;;;;16.13;8.93;;;;;;;-3.18;100.00;100255.56;5115714;28;20047;-83
2021/11/23 07:52:26;;;;;;;15.27;8.30;;;;;;;-2.97;100.00;100278.50;5115601;27;20043;-83
2021/11/23 07:54:53;;;;;;;16.90;9.53;;;;;;;-2.93;100.00;100274.78;5115388;28;20059;-83
2021/11/23 07:57:20;;;;;;;18.73;10.10;;;;;;;-2.86;100.00;100257.59;5115579;28;20039;-83
2021/11/23 07:59:47;;;;;;;19.93;11.13;;;;;;;-2.99;100.00;100245.81;5113900;27;20399;-83
2021/11/23 08:02:14;;;;;;;20.60;11.40;;;;;;;-2.94;100.00;100273.03;5115202;28;20483;-83
2021/11/23 08:04:41;;;;;;;16.97;9.70;;;;;;;-2.90;100.00;100282.63;5115289;27;20465;-83
2021/11/23 08:07:08;;;;;;;17.03;9.67;;;;;;;-2.88;100.00;100277.22;5115589;28;20050;-83
2021/11/23 08:09:37;;;;;;;13.70;8.23;;;;;;;-2.94;100.00;100253.56;5114827;28;20104;-83
2021/11/23 08:12:04;;;;;;;18.10;9.27;;;;;;;-2.62;100.00;100276.00;5114927;28;20050;-83
2021/11/23 08:14:31;;;;;;;18.83;9.43;;;;;;;-2.65;100.00;100264.63;5113981;27;20323;-83
2021/11/23 08:16:58;;;;;;;16.97;9.13;;;;;;;-2.48;100.00;100280.66;5112994;28;20043;-83
2021/11/23 08:19:25;;;;;;;17.70;7.87;;;;;;;-2.46;100.00;100262.78;5114904;27;20048;-83
2021/11/23 08:21:52;;;;;;;14.07;8.87;;;;;;;-2.45;100.00;100260.97;5114492;28;20047;-83
2021/11/23 08:24:22;;;;;;;21.20;10.33;;;;;;;-2.41;100.00;100254.56;5115158;27;20047;-83
2021/11/23 08:26:50;;;;;;;20.03;9.97;;;;;;;-2.23;100.00;100280.31;5114301;28;20143;-83
2021/11/23 08:29:17;;;;;;;17.23;9.30;;;;;;;-2.26;100.00;100269.78;5114610;28;20478;-82
2021/11/23 08:31:44;;;;;;;16.27;10.07;;;;;;;-2.07;100.00;100266.22;5100745;28;20048;-82
2021/11/23 08:34:12;;;;;;;16.57;9.33;;;;;;;-2.08;100.00;100269.81;5114172;27;20059;-83
2021/11/23 08:36:39;;;;;;;19.23;10.50;;;;;;;-1.93;100.00;100277.03;5114872;28;20126;-83
2021/11/23 08:39:06;;;;;;;23.40;10.30;;;;;;;-1.92;100.00;100270.75;5113882;28;20043;-83
2021/11/23 08:41:33;;;;;;;19.80;11.53;;;;;;;-1.84;100.00;100281.03;5112989;28;20062;-83
2021/11/23 08:44:01;;;;;;;15.83;9.97;;;;;;;-1.75;100.00;100287.69;5113961;28;20047;-83
2021/11/23 08:46:29;;;;;;;24.73;11.27;;;;;;;-1.76;100.00;100267.31;5113600;28;20069;-82
2021/11/23 08:48:56;;;;;;;20.43;11.53;;;;;;;-1.68;100.00;100265.97;5109394;28;20078;-83
2021/11/23 08:51:25;;;;;;;15.43;10.00;;;;;;;-1.53;100.00;100277.66;5119741;28;20039;-82
2021/11/23 08:53:52;;;;;;;20.52;10.48;;;;;;;-1.47;100.00;100279.13;5119761;28;20054;-83
2021/11/23 08:56:19;;;;;;;18.87;10.93;;;;;;;-1.44;100.00;100269.16;5119281;28;20040;-82
2021/11/23 08:58:52;;;;;;;18.67;10.60;;;;;;;-1.41;100.00;100264.63;5124880;28;20055;-82
2021/11/23 09:01:24;;;;;;;19.70;10.67;;;;;;;-1.37;100.00;100255.50;5124152;28;20043;-81
2021/11/23 09:03:52;;;;;;;20.20;10.27;;;;;;;-1.23;100.00;100268.97;5122879;28;20077;-82
2021/11/23 09:06:19;;;;;;;18.00;10.23;;;;;;;-1.16;100.00;100269.47;5120014;28;20055;-82
2021/11/23 09:08:53;;;;;;;18.83;11.53;;;;;;;-1.14;100.00;100249.78;5115714;28;20074;-83
2021/11/23 09:11:22;;;;;;;19.37;11.20;;;;;;;-1.06;100.00;100257.38;5115157;28;20047;-82
2021/11/23 09:13:49;;;;;;;15.57;9.47;;;;;;;-0.83;100.00;100272.09;5113585;28;20044;-82
2021/11/23 09:16:15;;;;;;;17.50;8.63;;;;;;;-0.91;100.00;100258.31;5113602;28;20584;-82
2021/11/23 09:18:44;;;;;;;15.43;9.67;;;;;;;-0.77;100.00;100269.13;5113257;28;20548;-84
2021/11/23 09:21:11;;;;;;;21.60;10.07;;;;;;;-0.67;100.00;100266.78;5113730;27;20051;-83
2021/11/23 09:23:38;;;;;;;16.30;9.57;;;;;;;-0.54;100.00;100283.00;5109478;28;20055;-83
2021/11/23 09:26:05;;;;;;;15.97;9.40;;;;;;;-0.57;100.00;100269.81;5109741;28;20055;-82
2021/11/23 09:28:32;;;;;;;12.60;8.33;;;;;;;-0.55;100.00;100249.22;5113122;28;20047;-81
2021/11/23 09:30:59;;;;;;;14.20;8.20;;;;;;;-0.37;100.00;100272.19;5113451;27;20113;-82
2021/11/23 09:33:26;;;;;;;15.73;8.67;;;;;;;-0.41;100.00;100256.41;5112854;28;20043;-82
2021/11/23 09:35:54;;;;;;;14.60;9.17;;;;;;;-0.27;100.00;100266.31;5113014;28;20052;-82
2021/11/23 09:38:21;;;;;;;13.90;8.00;;;;;;;-0.18;100.00;100268.47;5112859;27;20058;-82
2021/11/23 09:40:48;;;;;;;13.93;8.07;;;;;;;-0.20;100.00;100255.19;5106903;28;20074;-82
2021/11/23 09:43:15;;;;;;;10.73;7.87;;;;;;;-0.02;100.00;100268.41;5113082;28;20499;-83
2021/11/23 09:45:42;;;;;;;12.37;7.00;;;;;;;0.01;100.00;100249.53;5112806;27;20048;-83
2021/11/23 09:48:11;;;;;;;10.93;7.17;;;;;;;0.13;100.00;100254.13;5113135;28;20043;-83
2021/11/23 09:50:39;;;;;;;20.20;8.13;;;;;;;0.21;100.00;100250.16;5112985;27;20050;-82
2021/11/23 09:53:10;;;;;;;13.60;6.30;;;;;;;0.48;100.00;100266.34;5112505;27;20044;-83
2021/11/23 09:55:38;;;;;;;11.10;7.23;;;;;;;0.63;100.00;100256.53;5113346;28;20047;-83
2021/11/23 09:58:05;;;;;;;9.53;7.17;;;;;;;0.83;100.00;100239.25;5103947;27;20048;-83
2021/11/23 10:00:34;;;;;;;11.45;6.97;;;;;;;0.98;99.77;100243.63;5104867;28;20051;-83
2021/11/23 10:03:07;;;;;;;14.07;6.60;;;;;;;1.12;97.91;100234.69;5113001;27;20067;-84
2021/11/23 10:05:37;;;;;;;9.57;5.80;;;;;;;1.02;98.79;100223.72;5112945;28;20051;-83
2021/11/23 10:08:14;;;;;;;12.25;6.63;;;;;;;1.15;100.00;100221.09;5112731;28;20419;-83
2021/11/23 10:10:48;;;;;;;10.40;7.45;;;;;;;1.21;100.00;100233.25;5113095;28;20060;-83
2021/11/23 10:13:16;;;;;;;11.00;6.55;;;;;;;1.21;98.83;100238.63;5112555;28;20051;-83
2021/11/23 10:15:46;;;;;;;8.73;5.22;;;;;;;1.25;95.48;100237.47;5111380;28;20043;-83
2021/11/23 10:18:16;;;;;;;6.90;4.70;;;;;;;1.34;94.59;100234.19;5111241;27;20543;-83
2021/11/23 10:20:45;;;;;;;4.78;3.95;;;;;;;1.51;90.34;100218.81;5109680;28;20124;-83
2021/11/23 10:23:23;;;;;;;5.27;3.67;;;;;;;1.76;90.67;100226.06;5112575;27;20054;-83
2021/11/23 10:25:53;;;;;;;4.60;3.00;;;;;;;1.91;85.42;100221.50;5112544;27;20055;-83
2021/11/23 10:28:22;;;;;;;6.28;3.05;;;;;;;2.06;85.55;100231.22;5101647;28;20059;-82
2021/11/23 10:30:50;;;;;;;4.32;2.95;;;;;;;2.06;87.51;100207.06;5112652;28;20044;-83
2021/11/23 10:33:23;;;;;;;3.50;2.60;;;;;;;2.15;82.71;100215.44;5112381;27;20051;-83
2021/11/23 10:35:52;;;;;;;3.55;2.65;;;;;;;2.28;81.98;100235.09;5112385;27;20043;-83
2021/11/23 10:38:24;;;;;;;4.85;2.78;;;;;;;2.23;81.28;100218.44;5101072;28;20479;-83
2021/11/23 10:40:52;;;;;;;5.78;2.63;;;;;;;2.33;79.87;100207.94;5111613;28;20075;-83
2021/11/23 10:43:21;;;;;;;4.80;2.30;;;;;;;2.45;78.24;100215.16;5111748;28;20399;-83
2021/11/23 10:45:50;;;;;;;3.22;2.60;;;;;;;2.42;80.81;100202.78;5112376;27;20509;-83
2021/11/23 10:48:20;;;;;;;4.53;2.60;;;;;;;2.47;77.71;100210.56;5111384;28;20509;-83
2021/11/23 10:51:05;;;;;;;4.65;2.72;;;;;;;2.45;80.60;100210.66;5112831;28;20050;-83
2021/11/23 10:53:35;;;;;;;4.93;2.97;;;;;;;2.59;78.99;100212.38;5111954;28;20131;-83
2021/11/23 10:56:07;;;;;;;4.85;2.50;;;;;;;2.56;75.85;100209.91;5112562;28;20044;-83
2021/11/23 10:58:34;;;;;;;2.58;2.28;;;;;;;2.76;75.58;100219.22;5105977;28;20534;-83
2021/11/23 11:01:05;;;;;;;4.15;2.63;;;;;;;2.73;76.38;100210.53;5112587;28;20052;-83
2021/11/23 11:03:32;;;;;;;;;;;;;;;2.94;77.66;100224.25;5112530;27;20044;-83
2021/11/23 11:06:01;;;;;;;2.67;1.98;;;;;;;2.90;73.53;100191.38;5112454;28;19920;-83
2021/11/23 11:08:29;;;;;;;6.50;2.38;;;;;;;3.00;72.82;100205.84;5111964;28;20079;-83
2021/11/23 11:10:59;;;;;;;3.85;2.10;;;;;;;2.98;75.55;100194.38;5111264;28;20043;-83
2021/11/23 11:13:31;;;;;;;3.28;2.00;;;;;;;3.09;70.79;100195.44;5109630;28;20219;-83
2021/11/23 11:15:58;;;;;;;3.00;1.83;;;;;;;3.27;70.37;100210.19;5112197;28;20146;-83
2021/11/23 11:18:28;;;;;;;5.72;1.85;;;;;;;3.32;70.88;100199.97;5113749;28;20058;-83
2021/11/23 11:21:02;;;;;;;2.17;1.98;;;;;;;3.36;71.90;100203.28;5116148;27;20142;-83
2021/11/23 11:23:42;;;;;;;3.88;2.30;;;;;;;3.35;68.66;100182.75;5115907;27;20071;-83
2021/11/23 11:26:23;;;;;;;1.90;1.80;;;;;;;3.50;67.80;100205.81;5115083;28;20517;-83
2021/11/23 11:28:53;;;;;;;2.88;2.13;;;;;;;3.65;66.07;100197.56;5116163;27;20143;-83
2021/11/23 11:31:30;;;;;;;1.73;1.63;;;;;;;3.60;63.60;100191.66;5115166;28;20557;-83
2021/11/23 11:34:21;;;;;;;3.10;1.90;;;;;;;3.74;65.03;100191.50;5115609;28;20100;-83
2021/11/23 11:36:48;;;;;;;2.47;1.88;;;;;;;3.78;67.31;100178.66;5116092;28;20052;-83
2021/11/23 11:39:55;;;;;;;2.60;1.90;;;;;;;3.92;66.02;100183.03;5115010;27;20078;-83
2021/11/23 11:42:50;;;;;;;4.22;1.65;;;;;;;3.98;64.24;100186.09;5115876;28;20048;-83
2021/11/23 11:45:17;;;;;;;3.65;2.00;;;;;;;3.89;64.85;100165.28;5114834;28;20059;-83
2021/11/23 11:47:45;;;;;;;3.38;2.05;;;;;;;4.07;64.85;100179.13;5113868;27;20499;-83
2021/11/23 11:50:28;;;;;;;1.92;1.75;;;;;;;4.02;64.41;100159.78;5115439;28;20048;-83
2021/11/23 11:53:15;;;;;;;2.42;1.77;;;;;;;4.14;62.65;100164.25;5116645;28;20134;-83
2021/11/23 11:55:53;;;;;;;2.67;1.77;;;;;;;4.11;64.85;100174.38;5095090;28;20048;-83
2021/11/23 11:58:52;;;;;;;3.15;1.83;;;;;;;4.16;66.81;100189.19;5102327;28;20089;-83
2021/11/23 12:01:28;;;;;;;1.60;1.50;;;;;;;4.26;64.36;100186.66;5115872;28;20055;-83
2021/11/23 12:04:14;;;;;;;3.25;2.10;;;;;;;4.24;63.52;100158.97;5109750;28;20422;-83
2021/11/23 12:07:06;;;;;;;4.40;1.90;;;;;;;4.30;64.25;100171.13;5094995;28;20055;-83
2021/11/23 12:09:36;;;;;;;2.42;2.05;;;;;;;4.21;65.19;100170.84;5105669;28;20079;-83
2021/11/23 12:12:35;;;;;;;3.75;2.25;;;;;;;4.07;68.71;100166.53;5115452;28;20089;-83
2021/11/23 12:15:22;;;;;;;2.95;2.33;;;;;;;4.00;69.53;100157.22;5114610;28;20134;-83
2021/11/23 12:18:02;;;;;;;5.43;2.25;;;;;;;4.05;68.33;100151.47;5106675;28;20055;-83
2021/11/23 12:20:50;;;;;;;4.68;2.40;;;;;;;4.15;68.67;100160.56;5114086;28;20057;-83
2021/11/23 12:23:23;;;;;;;3.13;1.92;;;;;;;4.16;70.61;100150.66;5115087;28;20389;-83
2021/11/23 12:25:55;;;;;;;7.85;2.95;;;;;;;4.17;71.62;100153.22;5114649;28;20138;-83
2021/11/23 12:28:23;;;;;;;7.07;2.45;;;;;;;4.31;68.80;100152.16;5114997;27;20059;-83
2021/11/23 12:30:52;;;;;;;4.63;2.25;;;;;;;4.04;70.00;100144.41;5110311;28;20071;-83
2021/11/23 12:33:19;;;;;;;4.35;2.63;;;;;;;4.10;70.81;100149.31;5114570;28;20109;-83
2021/11/23 12:35:47;;;;;;;3.45;2.20;;;;;;;4.21;70.26;100151.16;5114579;28;20509;-83
2021/11/23 12:38:26;;;;;;;6.05;2.63;;;;;;;4.08;72.22;100127.03;5113404;27;20587;-83
2021/11/23 12:40:55;;;;;;;4.90;2.83;;;;;;;4.18;71.50;100138.78;5114437;28;20050;-82
2021/11/23 12:43:22;;;;;;;5.32;2.17;;;;;;;4.30;70.00;100136.97;5114379;27;20048;-83
2021/11/23 12:45:50;;;;;;;2.10;1.90;;;;;;;4.25;70.51;100134.63;5110231;27;20052;-83
2021/11/23 12:48:32;;;;;;;3.75;2.35;;;;;;;4.31;69.36;100127.06;5113853;28;20055;-83
2021/11/23 12:50:58;;;;;;;3.17;2.38;;;;;;;4.37;66.80;100137.34;5114143;28;20138;-83
2021/11/23 12:53:26;;;;;;;5.15;2.20;;;;;;;4.24;68.19;100124.84;5114092;27;20414;-83
2021/11/23 12:55:55;;;;;;;2.80;2.10;;;;;;;4.29;68.71;100137.09;5114258;27;20459;-83
2021/11/23 12:58:22;;;;;;;2.05;1.85;;;;;;;4.19;67.88;100115.44;5113861;27;20062;-83
2021/11/23 13:00:48;;;;;;;6.30;2.35;;;;;;;4.18;68.58;100111.88;5113849;27;20039;-84
2021/11/23 13:03:17;;;;;;;3.03;2.00;;;;;;;4.26;68.64;100113.97;5113161;28;20406;-84
2021/11/23 13:05:46;;;;;;;2.40;1.60;;;;;;;4.34;68.03;100122.28;5113557;27;20047;-83
2021/11/23 13:08:16;;;;;;;3.10;1.90;;;;;;;4.35;69.54;100117.75;5113653;27;20130;-83
2021/11/23 13:10:48;;;;;;;2.42;1.60;;;;;;;4.37;66.57;100111.28;5113943;28;20143;-83
2021/11/23 13:13:28;;;;;;;3.25;2.00;;;;;;;4.50;69.68;100102.22;5113182;27;20047;-83
2021/11/23 13:15:56;;;;;;;4.28;2.17;;;;;;;4.59;69.18;100114.94;5114334;28;20097;-83
2021/11/23 13:18:31;;;;;;;3.53;2.45;;;;;;;4.53;67.94;100104.66;5113035;27;20100;-83
2021/11/23 13:21:00;;;;;;;2.47;1.83;;;;;;;4.48;70.31;100102.34;5107190;27;20075;-83
2021/11/23 13:23:28;;;;;;;7.93;1.88;;;;;;;4.59;69.17;100110.44;5112944;28;20051;-83
2021/11/23 13:26:01;;;;;;;2.13;1.70;;;;;;;4.70;69.93;100117.63;5113493;28;20043;-83
2021/11/23 13:28:36;;;;;;;2.30;1.98;;;;;;;4.68;73.10;100102.56;5113408;28;20082;-83
2021/11/23 13:31:05;;;;;;;5.53;2.33;;;;;;;4.64;71.66;100091.19;5113569;27;20138;-83
2021/11/23 13:33:38;;;;;;;6.07;1.92;;;;;;;4.71;72.48;100097.81;5113457;27;20130;-83
2021/11/23 13:36:11;;;;;;;5.03;1.80;;;;;;;4.63;68.62;100085.94;5099051;28;20048;-83
2021/11/23 13:38:41;;;;;;;3.25;2.13;;;;;;;4.77;70.17;100100.00;5108508;28;20047;-83
2021/11/23 13:41:24;;;;;;;4.53;1.98;;;;;;;4.75;67.14;100099.25;5112932;28;20077;-83
2021/11/23 13:44:03;;;;;;;2.53;1.75;;;;;;;4.91;67.94;100100.72;5113351;27;20086;-83
2021/11/23 13:46:45;;;;;;;2.10;1.50;;;;;;;4.87;68.22;100089.31;5113121;28;20142;-82
2021/11/23 13:49:17;;;;;;;3.08;1.60;;;;;;;4.84;68.36;100084.19;5112874;28;20051;-83
2021/11/23 13:51:44;;;;;;;1.80;1.30;;;;;;;4.87;65.68;100092.00;5112967;28;20122;-83
2021/11/23 13:54:13;;;;;;;1.90;1.15;;;;;;;4.90;63.44;100080.97;5110957;28;20044;-83
2021/11/23 13:56:51;;;;;;;1.52;1.10;;;;;;;5.09;59.53;100101.03;5112804;28;20057;-83
2021/11/23 13:59:20;;;;;;;0.90;0.90;;;;;;;5.17;59.59;100100.41;5112775;27;20055;-83
2021/11/23 14:01:52;;;;;;;1.20;0.95;;;;;;;5.19;57.11;100110.06;5112698;27;20113;-83
2021/11/23 14:04:25;;;;;;;1.98;1.40;;;;;;;5.11;55.86;100099.06;5113580;28;20054;-85
2021/11/23 14:07:16;;;;;;;1.40;1.30;;;;;;;4.94;59.65;100095.94;5114731;28;20411;-85
2021/11/23 14:10:07;;;;;;;1.48;1.20;;;;;;;4.97;59.61;100100.22;5112933;27;20064;-82
2021/11/23 14:12:36;;;;;;;1.27;1.10;;;;;;;4.97;59.47;100117.22;5113676;28;20043;-82
2021/11/23 14:15:23;;;;;;;1.17;1.00;;;;;;;5.00;59.84;100109.88;5113728;28;20043;-83
2021/11/23 14:18:13;;;;;;;1.40;1.10;;;;;;;4.95;61.04;100116.50;5106938;28;20487;-83
2021/11/23 14:20:58;;;;;;;1.20;1.00;;;;;;;4.83;61.60;100117.47;5109672;28;20055;-82
2021/11/23 14:23:27;;;;;;;1.08;0.98;;;;;;;4.76;62.94;100114.44;5093598;28;20082;-82
2021/11/23 14:26:24;;;;;;;2.10;1.10;;;;;;;4.82;60.75;100113.09;5106230;28;20402;-82
2021/11/23 14:28:54;;;;;;;3.03;1.17;;;;;;;4.83;60.72;100113.94;5108277;28;20134;-82
2021/11/23 14:31:24;;;;;;;4.90;1.83;;;;;;;4.75;59.72;100090.31;5113228;28;20058;-82
2021/11/23 14:33:52;;;;;;;2.38;1.20;;;;;;;4.77;60.63;100096.44;5113928;27;20147;-82
2021/11/23 14:36:29;;;;;;;2.00;1.35;;;;;;;4.81;60.83;100099.75;5113312;28;20039;-82
2021/11/23 14:39:07;;;;;;;1.77;1.50;;;;;;;4.80;60.81;100096.19;5113269;27;20055;-82
2021/11/23 14:41:34;;;;;;;1.70;1.60;;;;;;;4.69;60.97;100080.06;5112575;28;20047;-82
2021/11/23 14:44:01;;;;;;;2.17;1.63;;;;;;;4.66;61.45;100091.06;5113686;28;20051;-82
2021/11/23 14:46:28;;;;;;;5.80;1.80;;;;;;;4.63;62.71;100092.16;5101549;28;20390;-82
2021/11/23 14:48:57;;;;;;;2.45;1.40;;;;;;;4.63;63.49;100100.25;5113090;28;20479;-82
2021/11/23 14:51:29;;;;;;;4.78;1.58;;;;;;;4.65;62.60;100103.66;5113627;28;20043;-82
2021/11/23 14:53:58;;;;;;;7.63;1.50;;;;;;;4.56;63.46;100099.03;5115897;28;20059;-82
2021/11/23 14:56:26;;;;;;;1.77;1.40;;;;;;;4.42;63.59;100084.84;5117386;28;20051;-82
2021/11/23 14:58:53;;;;;;;2.78;1.58;;;;;;;4.44;64.96;100084.72;5117049;27;20488;-82
2021/11/23 15:01:21;;;;;;;3.08;1.20;;;;;;;4.34;64.38;100086.44;5117299;28;20694;-82
2021/11/23 15:03:48;;;;;;;2.38;1.70;;;;;;;4.28;65.68;100100.41;5112570;28;20040;-81
2021/11/23 15:06:15;;;;;;;5.90;1.70;;;;;;;4.27;66.42;100099.53;5117540;28;20398;-82
2021/11/23 15:08:44;;;;;;;1.35;1.05;;;;;;;4.05;67.17;100097.66;5116889;28;20039;-82
2021/11/23 15:11:12;;;;;;;2.40;1.40;;;;;;;4.06;68.65;100102.06;5117573;27;20043;-82
2021/11/23 15:13:39;;;;;;;3.97;1.40;;;;;;;3.97;67.20;100095.56;5116903;27;20066;-82
2021/11/23 15:16:06;;;;;;;2.58;1.60;;;;;;;3.86;68.61;100095.56;5117526;27;20056;-82
2021/11/23 15:18:33;;;;;;;3.60;1.45;;;;;;;3.80;68.25;100093.34;5115984;27;20399;-82
2021/11/23 15:21:00;;;;;;;2.22;1.55;;;;;;;3.81;67.80;100101.31;5117310;28;20086;-82
2021/11/23 15:23:27;;;;;;;2.03;1.20;;;;;;;3.85;68.41;100126.13;5117019;28;20054;-83
2021/11/23 15:25:56;;;;;;;4.80;1.60;;;;;;;3.68;68.82;100097.84;5116939;27;20051;-82
2021/11/23 15:28:23;;;;;;;3.53;1.40;;;;;;;3.68;69.45;100108.59;5116703;28;20134;-82
2021/11/23 15:30:50;;;;;;;2.20;1.40;;;;;;;3.70;69.86;100120.09;5116674;28;20055;-82
2021/11/23 15:33:17;;;;;;;2.25;1.60;;;;;;;3.56;70.34;100113.06;5116703;27;20063;-82
2021/11/23 15:35:44;;;;;;;11.68;2.45;;;;;;;3.59;70.84;100118.22;5111424;27;20043;-82
2021/11/23 15:38:11;;;;;;;3.55;1.60;;;;;;;3.50;71.84;100111.69;5116025;28;20100;-82
2021/11/23 15:40:39;;;;;;;5.32;2.00;;;;;;;3.38;72.29;100114.47;5116618;28;20100;-82
2021/11/23 15:43:08;;;;;;;3.95;1.75;;;;;;;3.21;72.88;100097.78;5116563;28;20427;-82
2021/11/23 15:45:38;;;;;;;6.25;1.70;;;;;;;3.19;73.52;100122.09;5096574;28;20396;-82
2021/11/23 15:48:05;;;;;;;3.28;2.35;;;;;;;3.07;74.15;100096.13;5096357;28;20105;-83
2021/11/23 15:50:32;;;;;;;3.40;2.05;;;;;;;2.87;76.40;100111.00;5107081;28;20039;-83
2021/11/23 15:53:01;;;;;;;2.28;1.70;;;;;;;2.56;77.43;100090.91;5096452;28;20082;-83
2021/11/23 15:55:28;;;;;;;4.60;1.90;;;;;;;2.37;79.15;100088.69;5113949;28;20075;-83
2021/11/23 15:57:55;;;;;;;1.85;1.60;;;;;;;2.23;79.95;100106.63;5116432;27;20051;-82
2021/11/23 16:00:24;;;;;;;2.50;1.90;;;;;;;2.11;80.17;100107.50;5116221;28;20039;-83
2021/11/23 16:02:51;;;;;;;4.72;2.40;;;;;;;2.16;79.64;100096.44;5117088;28;20044;-82
2021/11/23 16:05:18;;;;;;;1.85;1.40;;;;;;;2.12;80.17;100117.25;5115782;28;20540;-83
2021/11/23 16:07:45;;;;;;;4.95;1.60;;;;;;;1.84;82.35;100092.38;5129130;27;20052;-83
2021/11/23 16:10:12;;;;;;;1.60;1.50;;;;;;;1.82;83.07;100118.41;5116275;27;20457;-83
2021/11/23 16:12:39;;;;;;;4.88;1.88;;;;;;;1.58;83.51;100105.75;5116100;28;20054;-83
2021/11/23 16:15:06;;;;;;;2.03;1.52;;;;;;;1.60;84.20;100116.34;5116045;28;20071;-82
2021/11/23 16:17:36;;;;;;;4.60;1.50;;;;;;;1.49;85.87;100118.88;5115723;27;20051;-82
2021/11/23 16:20:04;;;;;;;1.30;1.20;;;;;;;1.42;85.59;100121.13;5116600;27;20051;-82
2021/11/23 16:22:31;;;;;;;3.45;1.88;;;;;;;1.32;87.17;100120.88;5115623;28;20054;-83
2021/11/23 16:24:58;;;;;;;2.35;1.90;;;;;;;1.23;87.56;100119.69;5116018;28;20048;-82
2021/11/23 16:27:25;;;;;;;5.88;3.15;;;;;;;1.07;87.55;100110.94;5115888;28;20047;-82
2021/11/23 16:29:54;;;;;;;3.38;2.08;;;;;;;0.98;88.64;100117.75;5115927;27;20460;-82
2021/11/23 16:32:22;;;;;;;4.28;1.98;;;;;;;0.85;90.33;100114.16;5115269;27;20110;-82
2021/11/23 16:34:52;;;;;;;5.40;2.53;;;;;;;0.77;90.07;100121.81;5116050;28;20441;-82
2021/11/23 16:37:19;;;;;;;;;;;;;;;0.71;90.78;100123.09;5116370;27;20135;-82
2021/11/23 16:39:46;;;;;;;3.33;2.05;;;;;;;0.57;92.34;100126.63;5120869;27;20401;-82
2021/11/23 16:42:13;;;;;;;7.15;2.40;;;;;;;0.42;93.77;100111.53;5115518;28;20055;-82
2021/11/23 16:44:39;;;;;;;5.40;2.95;;;;;;;0.67;93.25;100130.44;5115853;28;20048;-82
2021/11/23 16:47:07;;;;;;;2.42;2.03;;;;;;;0.66;93.41;100135.88;5115702;27;20399;-82
2021/11/23 16:49:34;;;;;;;3.90;1.30;;;;;;;0.45;94.92;100130.97;5115890;28;20054;-82
2021/11/23 16:52:09;;;;;;;1.30;1.20;;;;;;;0.05;95.89;100116.53;5099295;28;20054;-83
2021/11/23 16:54:35;;;;;;;7.20;1.65;;;;;;;-0.06;96.42;100115.38;5115292;28;20055;-82
2021/11/23 16:57:02;;;;;;;7.60;2.55;;;;;;;-0.13;96.46;100123.88;5113955;28;20040;-82
2021/11/23 16:59:29;;;;;;;1.70;1.60;;;;;;;-0.23;96.27;100127.06;5115180;28;20047;-82
2021/11/23 17:01:56;;;;;;;2.50;1.90;;;;;;;-0.22;96.32;100122.59;5115164;28;20050;-82
2021/11/23 17:04:23;;;;;;;3.15;2.00;;;;;;;-0.01;95.66;100140.00;5115204;27;20108;-82
2021/11/23 17:06:53;;;;;;;6.13;2.22;;;;;;;-0.17;96.23;100133.88;5115083;28;20050;-81
2021/11/23 17:09:22;;;;;;;2.95;1.77;;;;;;;-0.23;96.02;100143.09;5114901;27;20095;-82
2021/11/23 17:11:49;;;;;;;2.63;1.90;;;;;;;-0.44;96.39;100120.34;5116560;28;20075;-82
2021/11/23 17:14:20;;;;;;;2.00;1.77;;;;;;;-0.50;96.56;100131.41;5115564;28;20051;-82
2021/11/23 17:16:48;;;;;;;1.90;1.73;;;;;;;-0.61;97.71;100122.19;5115536;28;20096;-82
2021/11/23 17:19:16;;;;;;;3.28;1.95;;;;;;;-0.67;98.68;100108.38;5114768;28;20088;-82
2021/11/23 17:21:44;;;;;;;2.70;1.98;;;;;;;-0.72;99.47;100100.63;5115001;27;20116;-82
2021/11/23 17:24:11;;;;;;;5.97;2.58;;;;;;;-0.73;100.00;100115.75;5115159;28;20048;-82
2021/11/23 17:26:40;;;;;;;6.20;2.53;;;;;;;-0.69;100.00;100120.91;5113977;28;20046;-82
2021/11/23 17:29:08;;;;;;;3.17;1.85;;;;;;;-0.67;100.00;100129.72;5114796;28;20052;-82
2021/11/23 17:31:36;;;;;;;3.47;2.20;;;;;;;-0.77;100.00;100132.06;5114240;27;20044;-82
2021/11/23 17:34:03;;;;;;;3.35;2.38;;;;;;;-0.79;100.00;100131.28;5114765;28;20047;-82
2021/11/23 17:36:47;;;;;;;5.32;3.13;;;;;;;-0.71;100.00;100137.03;5107843;28;20062;-84
2021/11/23 17:39:14;;;;;;;2.88;2.60;;;;;;;-0.75;100.00;100128.34;5120437;27;20053;-83
2021/11/23 17:41:43;;;;;;;4.35;2.25;;;;;;;-0.73;100.00;100131.78;5104779;28;20070;-83
2021/11/23 17:44:10;;;;;;;3.37;2.47;;;;;;;-0.87;99.74;100113.06;5114623;28;20044;-83
2021/11/23 17:46:37;;;;;;;2.33;1.90;;;;;;;-1.00;100.00;100125.38;5114095;27;20130;-84
2021/11/23 17:49:04;;;;;;;2.50;2.30;;;;;;;-1.12;100.00;100126.94;5110344;27;20061;-84
2021/11/23 17:51:31;;;;;;;5.30;2.30;;;;;;;-1.25;100.00;100116.06;5109167;27;20044;-84
2021/11/23 17:53:58;;;;;;;3.10;2.30;;;;;;;-1.17;100.00;100124.53;5122808;27;20055;-84
2021/11/23 17:56:25;;;;;;;4.70;2.50;;;;;;;-1.28;100.00;100126.91;5094596;27;20052;-84
2021/11/23 17:58:54;;;;;;;5.53;2.47;;;;;;;-1.29;100.00;100125.22;5103514;27;20124;-83
2021/11/23 18:01:22;;;;;;;3.63;2.50;;;;;;;-1.45;100.00;100115.38;5110405;28;20460;-83
2021/11/23 18:03:50;;;;;;;3.20;2.60;;;;;;;-1.40;100.00;100128.50;5115767;27;20472;-83
2021/11/23 18:06:17;;;;;;;6.63;3.80;;;;;;;-1.47;100.00;100135.09;5127452;27;20040;-83
2021/11/23 18:08:46;;;;;;;3.92;3.47;;;;;;;-1.39;100.00;100124.00;5122034;27;20071;-84
2021/11/23 18:11:13;;;;;;;10.37;3.70;;;;;;;-1.43;100.00;100129.50;5113567;27;20051;-84
2021/11/23 18:13:47;;;;;;;5.87;2.93;;;;;;;-1.41;100.00;100147.25;5117844;27;20087;-84
2021/11/23 18:16:18;;;;;;;2.93;2.07;;;;;;;-1.70;100.00;100139.00;5115678;27;20054;-84
2021/11/23 18:18:47;;;;;;;5.60;4.00;;;;;;;-1.74;100.00;100134.81;5111755;28;20059;-84
2021/11/23 18:21:15;;;;;;;4.80;4.00;;;;;;;-1.68;100.00;100132.66;5113181;28;20063;-84